Time;durP1;ratioP1;P1;durP2;ratioP2;P2;SDS_P1;SDS_P2;PMS_P1;PMS_P2;Temp;Humidity;BMP_temperature;BMP_pressure;BME280_temperature;BME280_humidity;BME280_pressure;Samples;Min_cycle;Max_cycle;Signal;HPM_P1;HPM_P2
2023/03/30 00:01:29;;;;;;;13.77;10.88;;;16.00;91.90;;;;;;5074776;28;20047;-64
2023/03/30 00:03:55;;;;;;;14.93;11.23;;;15.70;91.80;;;;;;5073684;28;20049;-63
2023/03/30 00:06:21;;;;;;;14.15;11.27;;;15.90;91.90;;;;;;5074143;28;20040;-63
2023/03/30 00:08:48;;;;;;;14.10;10.63;;;16.20;92.00;;;;;;5073701;28;20507;-63
2023/03/30 00:11:15;;;;;;;15.05;10.90;;;;;;;;;;5073324;28;20056;-64
2023/03/30 00:13:42;;;;;;;13.23;10.50;;;;;;;;;;5073121;28;20052;-64
2023/03/30 00:16:08;;;;;;;13.98;10.80;;;15.90;91.10;;;;;;5073227;28;20114;-62
2023/03/30 00:18:35;;;;;;;13.40;11.00;;;;;;;;;;5074473;28;20052;-62
2023/03/30 00:21:01;;;;;;;15.18;10.25;;;16.10;91.90;;;;;;5074390;28;20044;-65
2023/03/30 00:23:27;;;;;;;14.80;10.57;;;15.60;91.00;;;;;;5070812;28;21051;-61
2023/03/30 00:25:53;;;;;;;12.80;10.00;;;;;;;;;;5053220;28;20060;-63
2023/03/30 00:28:19;;;;;;;13.50;10.38;;;15.90;92.20;;;;;;5054505;28;20041;-63
2023/03/30 00:30:46;;;;;;;14.18;10.07;;;15.90;90.70;;;;;;5054183;28;20510;-63
2023/03/30 00:33:12;;;;;;;13.15;10.10;;;;;;;;;;5053145;28;20052;-61
2023/03/30 00:35:38;;;;;;;13.20;10.02;;;16.00;92.30;;;;;;5054456;28;20386;-64
2023/03/30 00:38:04;;;;;;;13.45;9.57;;;16.20;92.20;;;;;;5054431;28;20044;-63
2023/03/30 00:40:31;;;;;;;13.52;9.05;;;16.00;91.40;;;;;;5054924;28;21000;-62
2023/03/30 00:43:01;;;;;;;12.45;9.40;;;15.90;92.20;;;;;;5052825;28;20434;-63
2023/03/30 00:45:32;;;;;;;11.60;9.57;;;16.10;91.80;;;;;;5072031;28;20070;-64
2023/03/30 00:48:20;;;;;;;11.98;9.15;;;15.90;90.50;;;;;;5074162;28;20056;-61
2023/03/30 00:51:03;;;;;;;12.48;9.20;;;16.20;92.40;;;;;;5072589;28;20056;-60
2023/03/30 00:53:41;;;;;;;12.75;9.05;;;16.20;90.40;;;;;;5072448;28;20570;-61
2023/03/30 00:56:08;;;;;;;12.23;9.52;;;16.10;92.40;;;;;;5055811;28;20110;-63
2023/03/30 00:58:35;;;;;;;12.35;8.93;;;15.90;91.80;;;;;;5071895;28;20398;-62
2023/03/30 01:01:02;;;;;;;11.90;8.02;;;16.00;91.00;;;;;;5072529;28;20067;-62
2023/03/30 01:03:56;;;;;;;13.30;9.30;;;16.00;91.30;;;;;;5071821;28;20040;-61
2023/03/30 01:06:28;;;;;;;12.25;8.15;;;;;;;;;;5070819;28;20106;-62
2023/03/30 01:08:54;;;;;;;12.25;9.13;;;16.00;92.50;;;;;;5072202;28;20198;-64
2023/03/30 01:11:21;;;;;;;13.82;9.13;;;15.90;92.40;;;;;;5073418;28;20090;-64
2023/03/30 01:13:48;;;;;;;14.07;8.85;;;16.00;91.00;;;;;;5071964;28;20081;-62
2023/03/30 01:16:27;;;;;;;15.07;8.60;;;16.00;92.40;;;;;;5071551;28;20408;-64
2023/03/30 01:19:20;;;;;;;11.77;8.35;;;16.10;90.70;;;;;;5056159;28;20044;-64
2023/03/30 01:22:05;;;;;;;12.35;8.38;;;;;;;;;;5073300;28;20695;-60
2023/03/30 01:24:37;;;;;;;13.02;9.00;;;16.00;91.50;;;;;;5073366;28;20063;-64
2023/03/30 01:27:50;;;;;;;12.50;8.25;;;16.00;91.40;;;;;;5073046;28;20048;-64
2023/03/30 01:30:50;;;;;;;16.00;8.65;;;16.20;90.90;;;;;;5068035;28;20088;-63
2023/03/30 01:33:36;;;;;;;11.77;7.90;;;15.80;91.10;;;;;;5072445;28;20407;-64
2023/03/30 01:36:23;;;;;;;12.55;7.95;;;16.30;92.70;;;;;;5057115;28;20080;-64
2023/03/30 01:39:16;;;;;;;12.68;8.55;;;16.30;90.90;;;;;;5071872;28;20131;-61
2023/03/30 01:41:55;;;;;;;11.03;7.57;;;16.00;91.20;;;;;;5071982;28;20193;-60
2023/03/30 01:44:31;;;;;;;10.77;7.88;;;16.00;91.70;;;;;;5071420;28;20313;-63
2023/03/30 01:47:04;;;;;;;13.27;7.30;;;16.10;91.20;;;;;;5071730;28;20098;-63
2023/03/30 01:49:43;;;;;;;11.15;7.63;;;15.90;90.60;;;;;;5054858;28;20041;-63
2023/03/30 01:52:16;;;;;;;11.00;7.20;;;16.20;91.40;;;;;;5055353;28;20486;-62
2023/03/30 01:54:46;;;;;;;;;;;15.90;91.50;;;;;;5071856;28;20048;-62
2023/03/30 01:57:23;;;;;;;11.50;7.72;;;16.30;92.70;;;;;;5072612;28;19920;-64
2023/03/30 01:59:56;;;;;;;12.55;7.90;;;15.90;92.50;;;;;;5071634;28;20040;-64
2023/03/30 02:02:22;;;;;;;12.27;7.63;;;16.20;92.20;;;;;;5055586;28;20051;-62
2023/03/30 02:04:48;;;;;;;11.05;6.80;;;;;;;;;;5054943;28;20059;-62
2023/03/30 02:07:21;;;;;;;9.35;6.90;;;16.20;90.50;;;;;;5070703;28;20091;-62
2023/03/30 02:09:47;;;;;;;11.75;6.53;;;16.10;91.60;;;;;;5055285;28;20123;-61
2023/03/30 02:12:12;;;;;;;10.25;7.03;;;16.00;92.50;;;;;;5054395;28;20442;-64
2023/03/30 02:14:39;;;;;;;10.73;6.57;;;;;;;;;;5070216;28;20043;-63
2023/03/30 02:17:10;;;;;;;9.32;6.70;;;;;;;;;;5071187;28;20049;-64
2023/03/30 02:19:37;;;;;;;10.88;6.43;;;;;;;;;;5072359;28;20127;-64
2023/03/30 02:22:05;;;;;;;9.50;6.30;;;16.00;92.50;;;;;;5072635;28;20044;-60
2023/03/30 02:24:31;;;;;;;9.20;6.40;;;16.20;92.60;;;;;;5071391;28;20048;-61
2023/03/30 02:26:57;;;;;;;10.48;6.07;;;;;;;;;;5070994;28;20047;-65
2023/03/30 02:29:23;;;;;;;9.85;6.10;;;;;;;;;;5071041;28;20131;-61
2023/03/30 02:31:49;;;;;;;9.38;6.13;;;;;;;;;;5072320;28;20105;-64
2023/03/30 02:34:32;;;;;;;10.30;5.75;;;16.00;91.30;;;;;;5070962;28;20046;-60
2023/03/30 02:37:17;;;;;;;8.93;5.70;;;;;;;;;;5055545;28;20049;-60
2023/03/30 02:40:07;;;;;;;8.23;5.25;;;16.10;91.40;;;;;;5071328;28;20052;-64
2023/03/30 02:42:41;;;;;;;7.72;5.03;;;16.20;91.20;;;;;;5055048;28;20064;-63
2023/03/30 02:45:23;;;;;;;10.07;5.38;;;16.20;92.70;;;;;;5053848;28;20083;-64
2023/03/30 02:48:26;;;;;;;8.32;5.30;;;15.90;90.70;;;;;;5072077;28;20051;-64
2023/03/30 02:51:05;;;;;;;7.85;5.15;;;16.10;90.70;;;;;;5072399;28;20047;-64
2023/03/30 02:53:37;;;;;;;8.15;4.97;;;16.10;90.60;;;;;;5054390;28;20469;-63
2023/03/30 02:56:11;;;;;;;6.78;4.68;;;;;;;;;;5072027;28;20084;-62
2023/03/30 02:58:49;;;;;;;7.90;4.68;;;15.70;92.40;;;;;;5070393;28;20048;-60
2023/03/30 03:01:25;;;;;;;8.55;4.70;;;16.00;90.60;;;;;;5072359;28;20665;-64
2023/03/30 03:03:51;;;;;;;8.93;4.68;;;;;;;;;;5071792;28;20048;-64
2023/03/30 03:06:19;;;;;;;7.40;4.47;;;;;;;;;;5070998;28;20040;-62
2023/03/30 03:08:49;;;;;;;8.35;4.38;;;;;;;;;;5070596;28;20048;-64
2023/03/30 03:11:15;;;;;;;7.15;3.90;;;15.70;92.60;;;;;;5070942;28;20055;-60
2023/03/30 03:13:41;;;;;;;7.05;3.92;;;15.80;92.00;;;;;;5071247;28;20490;-64
2023/03/30 03:16:09;;;;;;;6.88;3.80;;;16.10;92.70;;;;;;5072129;28;20049;-63
2023/03/30 03:18:38;;;;;;;6.50;4.10;;;;;;;;;;5054658;28;20045;-62
2023/03/30 03:21:05;;;;;;;7.00;3.70;;;16.00;92.70;;;;;;5072129;28;20113;-63
2023/03/30 03:23:31;;;;;;;7.45;3.85;;;16.20;92.70;;;;;;5071768;28;20091;-63
2023/03/30 03:25:59;;;;;;;6.40;3.42;;;16.10;92.70;;;;;;5074222;28;20110;-64
2023/03/30 03:28:25;;;;;;;6.15;3.58;;;16.40;92.80;;;;;;5075375;28;20124;-62
2023/03/30 03:30:52;;;;;;;7.35;3.83;;;;;;;;;;5068899;28;20053;-64
2023/03/30 03:33:19;;;;;;;6.57;3.78;;;;;;;;;;5054325;28;20453;-63
2023/03/30 03:35:45;;;;;;;9.20;3.65;;;16.10;92.70;;;;;;5055299;28;20088;-64
2023/03/30 03:38:14;;;;;;;9.20;4.03;;;;;;;;;;5055530;28;20083;-61
2023/03/30 03:40:40;;;;;;;7.10;3.47;;;16.10;92.70;;;;;;5055466;28;20133;-63
2023/03/30 03:43:06;;;;;;;7.25;3.40;;;;;;;;;;5053970;28;20124;-64
2023/03/30 03:45:32;;;;;;;7.47;3.20;;;16.20;92.50;;;;;;5060503;28;20056;-64
2023/03/30 03:47:58;;;;;;;6.72;3.63;;;16.00;92.70;;;;;;5072930;28;20048;-63
2023/03/30 03:50:24;;;;;;;5.88;2.97;;;16.10;92.70;;;;;;5074976;28;20098;-64
2023/03/30 03:52:50;;;;;;;5.97;3.13;;;16.00;92.70;;;;;;5074008;28;20113;-63
2023/03/30 03:55:16;;;;;;;9.75;3.60;;;16.20;92.70;;;;;;5075164;28;20395;-64
2023/03/30 03:57:43;;;;;;;8.18;3.20;;;;;;;;;;5074885;28;20121;-64
2023/03/30 04:00:15;;;;;;;6.85;3.80;;;;;;;;;;5074831;28;20087;-64
2023/03/30 04:02:41;;;;;;;7.15;3.20;;;16.20;92.70;;;;;;5073517;28;20056;-63
2023/03/30 04:05:08;;;;;;;6.20;3.00;;;;;;;;;;5073829;28;20052;-63
2023/03/30 04:07:35;;;;;;;5.75;2.83;;;;;;;;;;5075017;28;20423;-62
2023/03/30 04:10:06;;;;;;;6.72;2.92;;;;;;;;;;5074954;28;20394;-64
2023/03/30 04:12:32;;;;;;;5.88;2.80;;;;;;;;;;5073177;28;20467;-64
2023/03/30 04:14:58;;;;;;;7.13;3.30;;;;;;;;;;5074832;28;20402;-61
2023/03/30 04:17:24;;;;;;;5.60;2.65;;;;;;;;;;5074492;28;20041;-62
2023/03/30 04:19:52;;;;;;;6.90;2.92;;;16.40;91.60;;;;;;5073186;28;20048;-61
2023/03/30 04:22:19;;;;;;;8.43;2.95;;;16.10;91.80;;;;;;5072374;28;20052;-61
2023/03/30 04:24:45;;;;;;;5.80;3.17;;;;;;;;;;5073416;28;20051;-64
2023/03/30 04:27:15;;;;;;;6.30;3.00;;;16.20;92.80;;;;;;5072928;28;20047;-63
2023/03/30 04:29:43;;;;;;;8.77;3.90;;;16.10;92.80;;;;;;5074574;28;20103;-63
2023/03/30 04:32:11;;;;;;;7.65;2.70;;;;;;;;;;5074216;28;20048;-64
2023/03/30 04:34:41;;;;;;;7.10;2.78;;;16.30;91.40;;;;;;5072965;28;20490;-61
2023/03/30 04:37:10;;;;;;;6.35;3.40;;;16.10;90.80;;;;;;5073427;28;20047;-60
2023/03/30 04:39:36;;;;;;;4.93;2.67;;;16.10;91.60;;;;;;5062167;28;20045;-61
2023/03/30 04:42:03;;;;;;;7.32;2.80;;;16.30;92.60;;;;;;5053838;28;20037;-64
2023/03/30 04:44:29;;;;;;;6.20;2.70;;;16.30;92.20;;;;;;5052518;28;20061;-64
2023/03/30 04:46:55;;;;;;;5.68;2.70;;;16.30;91.70;;;;;;5086014;28;20095;-61
2023/03/30 04:49:21;;;;;;;6.32;2.90;;;16.10;92.50;;;;;;5052608;28;20056;-63
2023/03/30 04:51:47;;;;;;;5.95;2.80;;;;;;;;;;5052603;28;20106;-62
2023/03/30 04:54:14;;;;;;;7.47;2.90;;;;;;;;;;5086300;28;20048;-63
2023/03/30 04:56:40;;;;;;;6.55;2.88;;;;;;;;;;5065638;28;20070;-62
2023/03/30 04:59:06;;;;;;;6.25;2.80;;;16.30;92.50;;;;;;5074014;28;20055;-63
2023/03/30 05:01:32;;;;;;;5.70;2.97;;;16.20;92.90;;;;;;5072377;28;20074;-64
2023/03/30 05:03:58;;;;;;;7.72;2.72;;;;;;;;;;5073450;28;20581;-63
2023/03/30 05:06:24;;;;;;;5.50;2.65;;;16.30;91.60;;;;;;5073599;28;20079;-60
2023/03/30 05:08:50;;;;;;;8.60;3.35;;;16.20;92.50;;;;;;5073783;28;20041;-59
2023/03/30 05:11:16;;;;;;;7.07;2.60;;;16.30;92.20;;;;;;5073766;28;20106;-61
2023/03/30 05:13:42;;;;;;;5.63;2.70;;;;;;;;;;5071112;28;20170;-61
2023/03/30 05:16:08;;;;;;;6.93;2.92;;;16.10;92.90;;;;;;5073652;28;20036;-64
2023/03/30 05:18:34;;;;;;;5.80;2.50;;;;;;;;;;5072014;28;20577;-62
2023/03/30 05:21:00;;;;;;;5.55;2.92;;;;;;;;;;5073513;28;20051;-64
2023/03/30 05:23:27;;;;;;;7.75;3.13;;;;;;;;;;5073368;28;20124;-64
2023/03/30 05:25:54;;;;;;;5.97;2.70;;;;;;;;;;5073283;28;20044;-65
2023/03/30 05:28:21;;;;;;;6.00;2.70;;;16.20;91.90;;;;;;5073452;28;20079;-62
2023/03/30 05:30:52;;;;;;;5.80;2.70;;;16.10;91.70;;;;;;5072459;28;20048;-62
2023/03/30 05:33:18;;;;;;;4.75;2.45;;;15.90;92.80;;;;;;5071984;28;20124;-63
2023/03/30 05:35:44;;;;;;;5.30;2.55;;;;;;;;;;5073256;28;20183;-62
2023/03/30 05:38:10;;;;;;;6.13;2.70;;;;;;;;;;5071671;28;20044;-60
2023/03/30 05:40:36;;;;;;;6.25;2.70;;;;;;;;;;5071622;28;20060;-63
2023/03/30 05:43:02;;;;;;;5.65;2.25;;;16.30;92.90;;;;;;5072949;28;20374;-64
2023/03/30 05:45:29;;;;;;;5.40;2.35;;;;;;;;;;5072686;28;20129;-63
2023/03/30 05:48:09;;;;;;;8.75;2.95;;;16.00;91.10;;;;;;5053980;28;20499;-63
2023/03/30 05:50:36;;;;;;;4.97;2.40;;;16.20;93.00;;;;;;5055412;28;20121;-63
2023/03/30 05:53:02;;;;;;;6.05;2.47;;;16.20;93.00;;;;;;5071447;28;20044;-63
2023/03/30 05:55:28;;;;;;;7.05;2.50;;;16.20;92.90;;;;;;5071337;28;20057;-63
2023/03/30 05:57:53;;;;;;;5.68;2.40;;;16.30;91.20;;;;;;5071732;28;20052;-63
2023/03/30 06:00:23;;;;;;;9.25;2.67;;;16.20;92.30;;;;;;5071307;28;20104;-63
2023/03/30 06:02:49;;;;;;;6.72;2.63;;;16.10;92.70;;;;;;5072514;28;20541;-63
2023/03/30 06:05:15;;;;;;;5.40;2.17;;;;;;;;;;5071939;28;20131;-63
2023/03/30 06:07:42;;;;;;;8.70;2.90;;;;;;;;;;5071604;28;20139;-63
2023/03/30 06:10:08;;;;;;;6.68;2.40;;;16.20;91.90;;;;;;5071258;28;20123;-62
2023/03/30 06:12:34;;;;;;;6.45;2.45;;;;;;;;;;5072358;28;20036;-60
2023/03/30 06:15:01;;;;;;;8.15;3.33;;;;;;;;;;5071205;28;20056;-61
2023/03/30 06:17:28;;;;;;;6.60;2.65;;;16.30;93.10;;;;;;5072411;28;20048;-61
2023/03/30 06:19:54;;;;;;;5.70;2.53;;;16.40;92.70;;;;;;5072723;28;20480;-60
2023/03/30 06:22:20;;;;;;;6.15;2.63;;;;;;;;;;5071880;28;20129;-64
2023/03/30 06:24:46;;;;;;;6.78;2.55;;;;;;;;;;5071174;28;20194;-64
2023/03/30 06:27:13;;;;;;;6.60;2.65;;;;;;;;;;5072258;28;20106;-64
2023/03/30 06:29:39;;;;;;;5.60;2.55;;;;;;;;;;5072565;28;20136;-63
2023/03/30 06:32:05;;;;;;;7.72;2.20;;;16.20;93.10;;;;;;5072594;28;20076;-61
2023/03/30 06:34:31;;;;;;;6.70;2.70;;;16.30;93.10;;;;;;5072532;28;20051;-62
2023/03/30 06:36:56;;;;;;;6.93;2.55;;;16.40;93.20;;;;;;5071227;28;20049;-63
2023/03/30 06:39:23;;;;;;;5.63;2.33;;;16.30;92.50;;;;;;5054097;28;20466;-64
2023/03/30 06:41:49;;;;;;;5.60;2.50;;;16.30;93.10;;;;;;5050776;28;20049;-65
2023/03/30 06:44:14;;;;;;;5.25;2.17;;;16.40;93.10;;;;;;5052094;28;20053;-59
2023/03/30 06:46:41;;;;;;;6.45;2.53;;;;;;;;;;5052113;28;20052;-64
2023/03/30 06:49:07;;;;;;;6.60;2.47;;;16.60;92.70;;;;;;5051060;28;20101;-61
2023/03/30 06:51:36;;;;;;;5.38;2.55;;;16.60;92.80;;;;;;5052327;28;20433;-64
2023/03/30 06:54:02;;;;;;;8.23;2.80;;;16.50;93.00;;;;;;5052020;28;20049;-64
2023/03/30 06:56:28;;;;;;;6.57;2.63;;;16.60;92.00;;;;;;5084765;28;20049;-61
2023/03/30 06:58:55;;;;;;;5.32;2.38;;;16.50;93.00;;;;;;5050758;28;20045;-61
2023/03/30 07:01:22;;;;;;;9.02;2.78;;;;;;;;;;5055408;28;20052;-65
2023/03/30 07:03:48;;;;;;;7.13;2.80;;;;;;;;;;5056103;28;20087;-64
2023/03/30 07:06:14;;;;;;;6.82;2.80;;;16.30;92.90;;;;;;5055901;28;20045;-64
2023/03/30 07:08:40;;;;;;;5.47;2.50;;;;;;;;;;5056053;28;20052;-61
2023/03/30 07:11:07;;;;;;;6.28;2.60;;;;;;;;;;5055974;28;20390;-63
2023/03/30 07:13:33;;;;;;;7.78;2.45;;;;;;;;;;5074459;28;20059;-64
2023/03/30 07:15:59;;;;;;;6.10;2.55;;;;;;;;;;5075202;28;20040;-62
2023/03/30 07:18:25;;;;;;;7.50;2.55;;;16.70;93.00;;;;;;5075859;28;20056;-64
2023/03/30 07:20:51;;;;;;;4.82;2.50;;;16.80;93.00;;;;;;5075797;28;20044;-64
2023/03/30 07:23:17;;;;;;;7.07;2.88;;;16.90;92.90;;;;;;5075761;28;20489;-63
2023/03/30 07:25:43;;;;;;;7.15;2.45;;;17.00;91.50;;;;;;5075667;28;20067;-63
2023/03/30 07:28:09;;;;;;;5.70;2.42;;;;;;;;;;5075173;28;20048;-63
2023/03/30 07:30:35;;;;;;;6.65;2.60;;;17.00;92.70;;;;;;5074675;28;20044;-63
2023/03/30 07:33:02;;;;;;;6.05;2.80;;;;;;;;;;5074046;28;20051;-63
2023/03/30 07:35:28;;;;;;;6.68;2.25;;;;;;;;;;5075601;28;20394;-63
2023/03/30 07:37:54;;;;;;;9.75;2.38;;;17.50;92.80;;;;;;5075538;28;20057;-63
2023/03/30 07:40:20;;;;;;;7.03;2.60;;;;;;;;;;5075243;28;20044;-63
2023/03/30 07:42:46;;;;;;;5.93;2.60;;;17.30;92.40;;;;;;5074971;28;20513;-63
2023/03/30 07:45:13;;;;;;;7.45;2.95;;;;;;;;;;5072747;28;20059;-63
2023/03/30 07:47:39;;;;;;;7.03;2.28;;;17.30;91.20;;;;;;5055358;28;20049;-63
2023/03/30 07:50:05;;;;;;;10.60;2.80;;;;;;;;;;5055065;28;20053;-64
2023/03/30 07:52:31;;;;;;;8.23;2.30;;;16.90;92.30;;;;;;5054937;28;20095;-61
2023/03/30 07:54:57;;;;;;;7.13;2.10;;;17.30;92.70;;;;;;5053614;28;20048;-61
2023/03/30 07:57:23;;;;;;;7.35;2.75;;;17.10;92.80;;;;;;5053759;28;20095;-64
2023/03/30 07:59:49;;;;;;;6.13;2.53;;;;;;;;;;5054826;28;20051;-63
2023/03/30 08:02:16;;;;;;;7.20;2.58;;;17.20;92.80;;;;;;5055599;28;20059;-60
2023/03/30 08:04:43;;;;;;;7.72;2.40;;;17.20;92.80;;;;;;5054729;28;20152;-64
2023/03/30 08:07:09;;;;;;;6.82;2.15;;;17.10;92.80;;;;;;5055067;28;20545;-62
2023/03/30 08:09:35;;;;;;;5.38;2.10;;;16.90;92.80;;;;;;5054651;28;20091;-64
2023/03/30 08:12:01;;;;;;;9.27;2.58;;;;;;;;;;5054770;28;20052;-64
2023/03/30 08:14:27;;;;;;;6.28;2.47;;;17.00;92.80;;;;;;5054521;28;20049;-61
2023/03/30 08:16:54;;;;;;;5.72;2.08;;;17.00;92.80;;;;;;5054577;28;20517;-65
2023/03/30 08:19:20;;;;;;;5.00;1.95;;;17.40;92.80;;;;;;5055302;28;20049;-61
2023/03/30 08:21:46;;;;;;;5.15;1.90;;;17.10;92.90;;;;;;5054723;28;20403;-62
2023/03/30 08:24:12;;;;;;;9.93;2.50;;;;;;;;;;5053041;28;20052;-63
2023/03/30 08:26:38;;;;;;;6.82;2.17;;;17.10;92.80;;;;;;5067169;28;20048;-59
2023/03/30 08:29:04;;;;;;;5.80;1.95;;;16.90;92.80;;;;;;5074277;28;20048;-65
2023/03/30 08:31:31;;;;;;;7.28;2.00;;;;;;;;;;5074242;28;20116;-61
2023/03/30 08:33:58;;;;;;;5.38;2.00;;;17.50;91.60;;;;;;5073173;28;20374;-62
2023/03/30 08:36:24;;;;;;;5.97;2.60;;;16.80;92.80;;;;;;5073652;28;20116;-64
2023/03/30 08:38:50;;;;;;;7.78;2.47;;;;;;;;;;5072833;28;20052;-64
2023/03/30 08:41:28;;;;;;;5.20;1.92;;;16.90;91.10;;;;;;5074352;28;20048;-61
2023/03/30 08:44:00;;;;;;;9.95;2.33;;;16.90;92.90;;;;;;5073910;28;20047;-61
2023/03/30 08:46:26;;;;;;;8.77;3.13;;;17.10;91.90;;;;;;5074300;28;20055;-61
2023/03/30 08:48:52;;;;;;;7.90;2.40;;;16.90;92.90;;;;;;5056462;28;20390;-65
2023/03/30 08:51:22;;;;;;;11.93;2.30;;;16.70;91.50;;;;;;5072935;28;20044;-61
2023/03/30 08:53:56;;;;;;;7.03;2.75;;;16.90;91.60;;;;;;5071726;28;20044;-60
2023/03/30 08:56:27;;;;;;;6.18;2.30;;;17.20;91.60;;;;;;5074021;28;20044;-62
2023/03/30 08:59:15;;;;;;;9.18;2.80;;;16.90;91.00;;;;;;5072532;28;20053;-64
2023/03/30 09:02:09;;;;;;;8.13;2.35;;;16.90;91.40;;;;;;5073956;28;20044;-64
2023/03/30 09:04:55;;;;;;;8.57;2.55;;;16.90;93.00;;;;;;5072551;28;20398;-63
2023/03/30 09:07:26;;;;;;;11.93;3.03;;;16.60;91.50;;;;;;5073829;28;20113;-61
2023/03/30 09:09:53;;;;;;;9.80;2.58;;;;;;;;;;5056564;28;20045;-63
2023/03/30 09:12:41;;;;;;;7.03;2.67;;;16.80;91.20;;;;;;5072822;28;20418;-62
2023/03/30 09:15:26;;;;;;;8.55;2.67;;;16.80;91.60;;;;;;5073348;28;20056;-60
2023/03/30 09:17:59;;;;;;;7.05;1.80;;;17.00;93.10;;;;;;5072624;28;20398;-62
2023/03/30 09:20:32;;;;;;;6.68;2.30;;;16.70;91.90;;;;;;5056726;28;20127;-60
2023/03/30 09:22:59;;;;;;;8.82;2.53;;;16.90;92.30;;;;;;5055312;28;20036;-61
2023/03/30 09:25:33;;;;;;;8.60;2.38;;;16.80;93.00;;;;;;5071705;28;20041;-64
2023/03/30 09:28:19;;;;;;;7.38;2.22;;;16.80;91.50;;;;;;5055648;28;20410;-64
2023/03/30 09:30:54;;;;;;;12.02;2.45;;;17.00;91.60;;;;;;5052819;28;20053;-63
2023/03/30 09:33:39;;;;;;;8.30;2.42;;;17.20;90.90;;;;;;5053085;28;20059;-63
2023/03/30 09:36:25;;;;;;;8.82;2.63;;;17.00;91.10;;;;;;5052057;28;20432;-63
2023/03/30 09:38:51;;;;;;;10.82;2.85;;;17.10;91.70;;;;;;5051757;28;20049;-61
2023/03/30 09:41:40;;;;;;;11.57;3.13;;;17.30;92.90;;;;;;5053171;28;20033;-64
2023/03/30 09:44:12;;;;;;;8.50;2.47;;;17.20;91.60;;;;;;5052688;28;20255;-62
2023/03/30 09:46:39;;;;;;;7.60;2.45;;;17.40;92.40;;;;;;5051535;28;20116;-60
2023/03/30 09:49:12;;;;;;;9.65;2.33;;;17.00;92.80;;;;;;5052724;28;20088;-64
2023/03/30 09:51:51;;;;;;;10.10;2.65;;;17.40;92.90;;;;;;5051753;28;20442;-64
2023/03/30 09:54:22;;;;;;;8.75;2.42;;;17.40;91.50;;;;;;5051944;28;20055;-64
2023/03/30 09:56:50;;;;;;;8.45;2.75;;;;;;;;;;5052943;28;20375;-63
2023/03/30 09:59:33;;;;;;;11.20;2.88;;;17.20;90.70;;;;;;5052655;28;20057;-64
2023/03/30 10:02:12;;;;;;;11.82;3.22;;;17.40;90.80;;;;;;5058452;28;20052;-63
2023/03/30 10:04:59;;;;;;;10.32;2.90;;;17.60;91.50;;;;;;5072812;28;20049;-62
2023/03/30 10:07:32;;;;;;;8.10;3.10;;;17.40;90.70;;;;;;5071390;28;20049;-61
2023/03/30 10:10:00;;;;;;;11.82;2.92;;;17.60;92.80;;;;;;5071342;28;20124;-61
2023/03/30 10:12:26;;;;;;;9.85;3.17;;;;;;;;;;5071080;28;20087;-64
2023/03/30 10:14:57;;;;;;;10.35;2.90;;;17.70;90.60;;;;;;5071225;28;20048;-64
2023/03/30 10:17:24;;;;;;;12.38;2.58;;;17.70;92.40;;;;;;5054771;28;20047;-59
2023/03/30 10:20:13;;;;;;;10.27;2.80;;;18.00;90.90;;;;;;5070542;28;20045;-62
2023/03/30 10:22:51;;;;;;;11.98;3.47;;;17.80;92.60;;;;;;5057421;28;20063;-64
2023/03/30 10:25:22;;;;;;;12.75;2.80;;;17.80;91.20;;;;;;5072113;28;20106;-62
2023/03/30 10:27:52;;;;;;;10.77;2.92;;;17.90;92.50;;;;;;5072331;28;20044;-63
2023/03/30 10:30:20;;;;;;;12.73;2.63;;;18.00;91.60;;;;;;5072617;28;20044;-62
2023/03/30 10:32:45;;;;;;;7.65;2.55;;;17.50;92.30;;;;;;5072558;28;20040;-64
2023/03/30 10:35:16;;;;;;;9.20;2.45;;;17.90;91.00;;;;;;5072895;28;20071;-64
2023/03/30 10:37:43;;;;;;;8.77;2.78;;;17.40;92.20;;;;;;5055447;28;20461;-64
2023/03/30 10:40:36;;;;;;;9.98;2.38;;;18.00;92.30;;;;;;5055448;28;20368;-65
2023/03/30 10:43:02;;;;;;;11.52;2.60;;;;;;;;;;5054946;28;20491;-64
2023/03/30 10:45:47;;;;;;;7.47;2.45;;;17.60;92.20;;;;;;5055012;28;20049;-65
2023/03/30 10:48:22;;;;;;;10.68;2.53;;;17.70;90.10;;;;;;5056537;28;20119;-65
2023/03/30 10:51:03;;;;;;;10.75;2.42;;;17.60;90.20;;;;;;5056444;28;20040;-65
2023/03/30 10:53:35;;;;;;;7.75;2.05;;;17.60;91.00;;;;;;5055661;28;20053;-59
2023/03/30 10:56:26;;;;;;;10.18;2.53;;;17.50;92.00;;;;;;5056305;28;20123;-63
2023/03/30 10:59:14;;;;;;;9.70;2.08;;;17.80;90.20;;;;;;5054712;28;20049;-62
2023/03/30 11:02:01;;;;;;;7.90;2.20;;;17.70;90.40;;;;;;5055880;28;20048;-61
2023/03/30 11:04:37;;;;;;;9.38;2.40;;;17.30;90.10;;;;;;5054898;28;20119;-62
2023/03/30 11:07:04;;;;;;;8.60;2.53;;;17.70;90.50;;;;;;5056088;28;20045;-63
2023/03/30 11:09:36;;;;;;;8.95;2.33;;;17.60;92.00;;;;;;5055111;28;20113;-65
2023/03/30 11:12:14;;;;;;;8.35;2.40;;;17.70;92.00;;;;;;5055923;28;20110;-65
2023/03/30 11:14:48;;;;;;;8.18;2.13;;;17.60;90.20;;;;;;5056004;28;20044;-64
2023/03/30 11:17:29;;;;;;;7.68;2.38;;;17.60;91.40;;;;;;5054785;28;20376;-64
2023/03/30 11:19:55;;;;;;;10.38;2.50;;;17.60;90.50;;;;;;5054434;28;20048;-65
2023/03/30 11:22:42;;;;;;;11.75;2.20;;;17.50;91.80;;;;;;5038012;28;20048;-64
2023/03/30 11:25:22;;;;;;;9.10;2.33;;;17.80;89.90;;;;;;5055501;28;20056;-61
2023/03/30 11:28:16;;;;;;;9.63;2.65;;;17.60;89.70;;;;;;5057617;28;20368;-63
2023/03/30 11:30:41;;;;;;;12.38;2.67;;;17.50;91.90;;;;;;5075416;28;20040;-65
2023/03/30 11:33:35;;;;;;;8.70;2.42;;;17.30;89.90;;;;;;5074113;28;20055;-61
2023/03/30 11:36:04;;;;;;;11.75;2.75;;;17.50;90.50;;;;;;5075346;28;20387;-64
2023/03/30 11:38:50;;;;;;;9.52;1.95;;;17.50;91.60;;;;;;5057623;28;20049;-62
2023/03/30 11:41:35;;;;;;;9.48;2.17;;;17.50;91.90;;;;;;5074287;28;20059;-62
2023/03/30 11:44:01;;;;;;;9.73;2.50;;;17.40;91.00;;;;;;5056336;28;20059;-62
2023/03/30 11:46:32;;;;;;;9.50;2.50;;;17.30;90.40;;;;;;5074633;28;20052;-63
2023/03/30 11:49:10;;;;;;;8.48;2.28;;;17.40;91.80;;;;;;5075359;28;20393;-61
2023/03/30 11:51:57;;;;;;;9.68;2.72;;;17.80;90.00;;;;;;5073829;28;20559;-62
2023/03/30 11:54:52;;;;;;;9.60;2.58;;;17.40;89.50;;;;;;5074013;28;20389;-63
2023/03/30 11:57:33;;;;;;;9.35;2.25;;;17.50;91.90;;;;;;5073979;28;20401;-64
2023/03/30 12:00:27;;;;;;;10.32;2.30;;;17.40;91.00;;;;;;5074857;28;20549;-64
2023/03/30 12:03:00;;;;;;;;;;;17.50;90.70;;;;;;5075590;28;20047;-63
2023/03/30 12:05:27;;;;;;;;;;;17.30;90.70;;;;;;5057314;28;19936;-63
2023/03/30 12:08:09;;;;;;;11.07;2.42;;;17.70;91.40;;;;;;5073868;28;19924;-60
2023/03/30 12:10:40;;;;;;;9.45;2.58;;;17.30;91.70;;;;;;5073565;28;20040;-65
2023/03/30 12:13:12;;;;;;;9.50;2.45;;;17.60;91.50;;;;;;5073393;28;20120;-60
2023/03/30 12:16:10;;;;;;;10.73;3.67;;;17.50;91.10;;;;;;5073699;28;20049;-64
2023/03/30 12:18:56;;;;;;;7.97;2.17;;;17.50;91.70;;;;;;5063900;28;20511;-60
2023/03/30 12:21:37;;;;;;;10.98;3.03;;;17.70;89.30;;;;;;5041781;28;20091;-64
2023/03/30 12:24:15;;;;;;;10.45;2.63;;;17.60;91.70;;;;;;5074680;28;20055;-61
2023/03/30 12:26:41;;;;;;;7.90;2.17;;;;;;;;;;5074562;28;20040;-63
2023/03/30 12:29:11;;;;;;;10.40;3.20;;;17.60;91.70;;;;;;5073081;28;20048;-62
2023/03/30 12:31:54;;;;;;;11.73;3.38;;;17.20;91.60;;;;;;5074299;28;20064;-61
2023/03/30 12:34:22;;;;;;;8.40;2.33;;;17.60;91.70;;;;;;5071571;28;20088;-64
2023/03/30 12:37:03;;;;;;;10.73;2.42;;;17.60;91.50;;;;;;5053277;28;20045;-63
2023/03/30 12:39:49;;;;;;;9.15;2.78;;;17.60;91.30;;;;;;5052931;28;20057;-66
2023/03/30 12:42:25;;;;;;;12.35;3.38;;;17.60;91.60;;;;;;5052864;28;20495;-65
2023/03/30 12:44:55;;;;;;;11.20;2.80;;;17.70;90.70;;;;;;5052682;28;20100;-62
2023/03/30 12:47:45;;;;;;;9.15;2.75;;;17.70;89.40;;;;;;5052743;28;20092;-61
2023/03/30 12:50:29;;;;;;;11.13;2.97;;;;;;;;;;5053934;28;20092;-63
2023/03/30 12:53:40;;;;;;;9.20;2.78;;;17.60;88.90;;;;;;5053295;28;20494;-63
2023/03/30 12:56:17;;;;;;;10.13;2.72;;;17.70;91.50;;;;;;5043155;28;20182;-64
2023/03/30 12:58:51;;;;;;;13.23;3.60;;;17.80;90.10;;;;;;5070744;28;20056;-63
2023/03/30 13:01:26;;;;;;;11.52;2.60;;;17.70;88.60;;;;;;5055341;28;20052;-64
2023/03/30 13:03:52;;;;;;;11.63;2.47;;;17.80;91.50;;;;;;5054958;28;20057;-64
2023/03/30 13:06:22;;;;;;;11.60;2.42;;;17.90;90.10;;;;;;5071366;28;20063;-64
2023/03/30 13:08:53;;;;;;;10.07;2.53;;;17.80;90.00;;;;;;5071220;28;20398;-64
2023/03/30 13:11:20;;;;;;;10.60;2.47;;;17.70;90.60;;;;;;5054727;28;20499;-61
2023/03/30 13:13:56;;;;;;;12.38;2.33;;;18.00;90.40;;;;;;5054880;28;20084;-62
2023/03/30 13:16:49;;;;;;;9.40;2.85;;;17.80;91.40;;;;;;5071187;28;20052;-63
2023/03/30 13:19:30;;;;;;;8.68;2.35;;;18.00;89.00;;;;;;5071204;28;20048;-61
2023/03/30 13:22:11;;;;;;;15.77;3.40;;;18.10;91.40;;;;;;5054643;28;20510;-60
2023/03/30 13:24:54;;;;;;;12.02;2.65;;;17.70;91.30;;;;;;5070850;28;20524;-65
2023/03/30 13:27:21;;;;;;;;;;;17.90;90.20;;;;;;5054746;28;20048;-65
2023/03/30 13:30:06;;;;;;;12.00;2.75;;;17.80;91.30;;;;;;5064149;28;19921;-60
2023/03/30 13:32:54;;;;;;;9.40;2.75;;;18.10;91.40;;;;;;5053463;28;20045;-64
2023/03/30 13:35:35;;;;;;;11.88;3.13;;;17.80;91.30;;;;;;5053071;28;20037;-65